No.3tokuyomaru — JD3132 — position and weather

sailwx.info

Track history (hours):
 
Tides and Currents Weather Stations Pressure Air Temp Water Temp Dewpoint Dewpoint Depression Visibility Wind Speed Wind Dir Waves Ship Positions

No.3tokuyomaru

Last reported at 2014-Aug-16 10:31 UTC. Time now 2014-Aug-22 11:51 UTC.
Position N 34°37' E 135°01'.

Length 67 m; draft 4.6 m.

Type: Tanker. MMSI: 431002151.

Date/timePositionNaut miles runAvg speedWind from/ knotsBaromVisibWave heightAir tempDewpointWater temp
2014-Aug-16 10:31N 34°37' E 135°01'1010.0
2014-Aug-16 09:33N 34°28' E 135°03'1412.4
2014-Aug-16 08:27N 34°15' E 134°59'226 9.7
2014-Aug-15 09:04N 35°00' E 139°28'611.6
2014-Aug-15 08:33N 35°03' E 139°34'1111.4
2014-Aug-15 07:34N 35°10' E 139°45'1110.6
2014-Aug-15 06:34N 35°21' E 139°43'1010.1
2014-Aug-15 05:33N 35°30' E 139°48'2 0.6
2014-Aug-15 02:29N 35°31' E 139°46'0 0.0
2014-Aug-15 01:29N 35°31' E 139°46'1 1.2
2014-Aug-15 00:33N 35°30' E 139°47'2 1.9
2014-Aug-14 23:29N 35°29' E 139°49'0 0.0
2014-Aug-14 22:26N 35°29' E 139°49'0 0.0
2014-Aug-14 21:32N 35°29' E 139°49'0 0.0
2014-Aug-14 20:29N 35°29' E 139°49'0 0.0
2014-Aug-14 19:32N 35°29' E 139°49'0 0.0
2014-Aug-14 18:29N 35°29' E 139°49'0 0.0
2014-Aug-14 17:32N 35°29' E 139°49'0 0.0
2014-Aug-14 16:32N 35°29' E 139°49'0 0.1
2014-Aug-14 15:32N 35°29' E 139°49'0 0.0
2014-Aug-14 14:29N 35°29' E 139°49'0 0.1
2014-Aug-14 13:29N 35°29' E 139°49'0 0.0
2014-Aug-14 12:32N 35°29' E 139°49'0 0.0
2014-Aug-14 11:29N 35°29' E 139°49'0 0.1
2014-Aug-14 10:32N 35°29' E 139°49'0 0.0
2014-Aug-14 09:29N 35°29' E 139°49'0 0.1
2014-Aug-14 08:31N 35°29' E 139°49'0 0.0
2014-Aug-14 07:28N 35°29' E 139°49'0 0.0
2014-Aug-14 06:32N 35°29' E 139°49'0 0.1
2014-Aug-14 05:31N 35°29' E 139°49'0 0.0
2014-Aug-14 04:29N 35°29' E 139°49'0 0.0
2014-Aug-14 03:22N 35°29' E 139°49'0 0.0
2014-Aug-14 02:22N 35°29' E 139°49'0 0.0
2014-Aug-14 01:29N 35°29' E 139°49'0 0.0
2014-Aug-14 00:32N 35°29' E 139°49'0 0.0
2014-Aug-13 23:31N 35°29' E 139°49'0 0.0
2014-Aug-13 22:31N 35°29' E 139°49'0 0.0
2014-Aug-13 21:31N 35°29' E 139°49'0 0.0
2014-Aug-13 20:31N 35°29' E 139°49'0 0.0
2014-Aug-13 19:31N 35°29' E 139°49'0 0.0
2014-Aug-13 18:31N 35°29' E 139°49'0 0.1
2014-Aug-13 17:31N 35°29' E 139°49'0 0.0
2014-Aug-13 16:31N 35°29' E 139°49'0 0.0
2014-Aug-13 15:31N 35°29' E 139°49'0 0.0
2014-Aug-13 14:32N 35°29' E 139°49'0 0.0
2014-Aug-13 13:28N 35°29' E 139°49'0 0.0
2014-Aug-13 12:31N 35°29' E 139°49'0 0.0
2014-Aug-13 11:28N 35°29' E 139°49'0 0.1
2014-Aug-13 10:31N 35°29' E 139°49'0 0.0
2014-Aug-13 09:31N 35°29' E 139°49'0 0.0
2014-Aug-13 08:31N 35°29' E 139°49'0 0.0
2014-Aug-13 07:31N 35°29' E 139°49'0 0.0
2014-Aug-13 06:25N 35°29' E 139°49'0 0.1
2014-Aug-13 05:32N 35°29' E 139°49'0 0.0
2014-Aug-13 04:28N 35°29' E 139°49'0 0.0
2014-Aug-13 03:31N 35°29' E 139°49'0 0.0
2014-Aug-13 02:31N 35°29' E 139°49'0 0.0
2014-Aug-13 01:28N 35°29' E 139°49'0 0.0
2014-Aug-13 00:31N 35°29' E 139°49'0 0.1
2014-Aug-12 23:31N 35°29' E 139°49'0 0.0
2014-Aug-12 22:31N 35°29' E 139°49'0 0.0
2014-Aug-12 21:31N 35°29' E 139°49'0 0.0
2014-Aug-12 20:31N 35°29' E 139°49'0 0.0
2014-Aug-12 19:31N 35°29' E 139°49'0 0.0
2014-Aug-12 18:28N 35°29' E 139°49'0 0.0
2014-Aug-12 17:31N 35°29' E 139°49'2 2.2
2014-Aug-12 16:33N 35°27' E 139°48'1111.3
2014-Aug-12 15:33N 35°16' E 139°46'1212.3
2014-Aug-12 14:33N 35°04' E 139°44'19 8.2
2014-Aug-12 12:13N 34°58' E 140°07'65 9.2
2014-Aug-12 05:11N 35°56' E 140°42'2 0.3
2014-Aug-11 23:17N 35°55' E 140°41'57 7.3
2014-Aug-11 15:29N 35°01' E 140°14'  
Track history (hours):
 
Tides and Currents Weather Stations Pressure Air Temp Water Temp Dewpoint Dewpoint Depression Visibility Wind Speed Wind Dir Waves Ship Positions

No.3tokuyomaru

Last reported at 2014-Aug-16 10:31 UTC. Time now 2014-Aug-22 11:51 UTC.
Position N 34°37' E 135°01'.

Length 67 m; draft 4.6 m.

Type: Tanker. MMSI: 431002151.

Date/timePositionNaut miles runAvg speedWind from/ knotsBaromVisibWave heightAir tempDewpointWater temp
2014-Aug-16 10:31N 34°37' E 135°01'1010.0
2014-Aug-16 09:33N 34°28' E 135°03'1412.4
2014-Aug-16 08:27N 34°15' E 134°59'226 9.7
2014-Aug-15 09:04N 35°00' E 139°28'611.6
2014-Aug-15 08:33N 35°03' E 139°34'1111.4
2014-Aug-15 07:34N 35°10' E 139°45'1110.6
2014-Aug-15 06:34N 35°21' E 139°43'1010.1
2014-Aug-15 05:33N 35°30' E 139°48'2 0.6
2014-Aug-15 02:29N 35°31' E 139°46'0 0.0
2014-Aug-15 01:29N 35°31' E 139°46'1 1.2
2014-Aug-15 00:33N 35°30' E 139°47'2 1.9
2014-Aug-14 23:29N 35°29' E 139°49'0 0.0
2014-Aug-14 22:26N 35°29' E 139°49'0 0.0
2014-Aug-14 21:32N 35°29' E 139°49'0 0.0
2014-Aug-14 20:29N 35°29' E 139°49'0 0.0
2014-Aug-14 19:32N 35°29' E 139°49'0 0.0
2014-Aug-14 18:29N 35°29' E 139°49'0 0.0
2014-Aug-14 17:32N 35°29' E 139°49'0 0.0
2014-Aug-14 16:32N 35°29' E 139°49'0 0.1
2014-Aug-14 15:32N 35°29' E 139°49'0 0.0
2014-Aug-14 14:29N 35°29' E 139°49'0 0.1
2014-Aug-14 13:29N 35°29' E 139°49'0 0.0
2014-Aug-14 12:32N 35°29' E 139°49'0 0.0
2014-Aug-14 11:29N 35°29' E 139°49'0 0.1
2014-Aug-14 10:32N 35°29' E 139°49'0 0.0
2014-Aug-14 09:29N 35°29' E 139°49'0 0.1
2014-Aug-14 08:31N 35°29' E 139°49'0 0.0
2014-Aug-14 07:28N 35°29' E 139°49'0 0.0
2014-Aug-14 06:32N 35°29' E 139°49'0 0.1
2014-Aug-14 05:31N 35°29' E 139°49'0 0.0
2014-Aug-14 04:29N 35°29' E 139°49'0 0.0
2014-Aug-14 03:22N 35°29' E 139°49'0 0.0
2014-Aug-14 02:22N 35°29' E 139°49'0 0.0
2014-Aug-14 01:29N 35°29' E 139°49'0 0.0
2014-Aug-14 00:32N 35°29' E 139°49'0 0.0
2014-Aug-13 23:31N 35°29' E 139°49'0 0.0
2014-Aug-13 22:31N 35°29' E 139°49'0 0.0
2014-Aug-13 21:31N 35°29' E 139°49'0 0.0
2014-Aug-13 20:31N 35°29' E 139°49'0 0.0
2014-Aug-13 19:31N 35°29' E 139°49'0 0.0
2014-Aug-13 18:31N 35°29' E 139°49'0 0.1
2014-Aug-13 17:31N 35°29' E 139°49'0 0.0
2014-Aug-13 16:31N 35°29' E 139°49'0 0.0
2014-Aug-13 15:31N 35°29' E 139°49'0 0.0
2014-Aug-13 14:32N 35°29' E 139°49'0 0.0
2014-Aug-13 13:28N 35°29' E 139°49'0 0.0
2014-Aug-13 12:31N 35°29' E 139°49'0 0.0
2014-Aug-13 11:28N 35°29' E 139°49'0 0.1
2014-Aug-13 10:31N 35°29' E 139°49'0 0.0
2014-Aug-13 09:31N 35°29' E 139°49'0 0.0
2014-Aug-13 08:31N 35°29' E 139°49'0 0.0
2014-Aug-13 07:31N 35°29' E 139°49'0 0.0
2014-Aug-13 06:25N 35°29' E 139°49'0 0.1
2014-Aug-13 05:32N 35°29' E 139°49'0 0.0
2014-Aug-13 04:28N 35°29' E 139°49'0 0.0
2014-Aug-13 03:31N 35°29' E 139°49'0 0.0
2014-Aug-13 02:31N 35°29' E 139°49'0 0.0
2014-Aug-13 01:28N 35°29' E 139°49'0 0.0
2014-Aug-13 00:31N 35°29' E 139°49'0 0.1
2014-Aug-12 23:31N 35°29' E 139°49'0 0.0
2014-Aug-12 22:31N 35°29' E 139°49'0 0.0
2014-Aug-12 21:31N 35°29' E 139°49'0 0.0
2014-Aug-12 20:31N 35°29' E 139°49'0 0.0
2014-Aug-12 19:31N 35°29' E 139°49'0 0.0
2014-Aug-12 18:28N 35°29' E 139°49'0 0.0
2014-Aug-12 17:31N 35°29' E 139°49'2 2.2
2014-Aug-12 16:33N 35°27' E 139°48'1111.3
2014-Aug-12 15:33N 35°16' E 139°46'1212.3
2014-Aug-12 14:33N 35°04' E 139°44'19 8.2
2014-Aug-12 12:13N 34°58' E 140°07'65 9.2
2014-Aug-12 05:11N 35°56' E 140°42'2 0.3
2014-Aug-11 23:17N 35°55' E 140°41'57 7.3
2014-Aug-11 15:29N 35°01' E 140°14'  

Dump ship's entire track history